Time;durP1;ratioP1;P1;durP2;ratioP2;P2;SDS_P1;SDS_P2;PMS_P1;PMS_P2;Temp;Humidity;BMP_temperature;BMP_pressure;BME280_temperature;BME280_humidity;BME280_pressure;Samples;Min_cycle;Max_cycle;Signal;HPM_P1;HPM_P2
2023/07/21 00:01:16;;;;;;;55.05;38.63;;;27.00;99.90;;;;;;5107839;28;20478;-64
2023/07/21 00:03:43;;;;;;;58.20;38.20;;;27.10;99.90;;;;;;5116990;28;20055;-64
2023/07/21 00:06:10;;;;;;;56.22;37.70;;;27.00;99.90;;;;;;5117221;28;20486;-64
2023/07/21 00:08:38;;;;;;;67.95;43.33;;;26.90;99.90;;;;;;5116997;28;20031;-65
2023/07/21 00:11:05;;;;;;;71.15;48.45;;;26.90;99.90;;;;;;5116793;28;20413;-64
2023/07/21 00:13:35;;;;;;;76.88;51.83;;;27.00;99.90;;;;;;5117064;28;20408;-64
2023/07/21 00:16:03;;;;;;;83.75;55.33;;;26.90;99.90;;;;;;5116881;28;20393;-65
2023/07/21 00:18:32;;;;;;;85.82;55.60;;;27.00;99.90;;;;;;5116766;28;20046;-64
2023/07/21 00:20:59;;;;;;;82.05;45.83;;;27.00;99.90;;;;;;5116885;28;20435;-65
2023/07/21 00:23:26;;;;;;;82.57;46.15;;;27.00;99.90;;;;;;5116267;28;20031;-63
2023/07/21 00:25:53;;;;;;;89.88;61.80;;;26.90;99.90;;;;;;5111202;28;20027;-65
2023/07/21 00:28:20;;;;;;;86.38;57.28;;;26.90;99.90;;;;;;5115958;28;20012;-65
2023/07/21 00:30:48;;;;;;;63.08;41.75;;;27.00;99.90;;;;;;5116792;28;20465;-64
2023/07/21 00:33:16;;;;;;;63.50;39.13;;;27.00;99.90;;;;;;5110695;28;20055;-64
2023/07/21 00:35:42;;;;;;;61.67;41.05;;;27.00;99.90;;;;;;5116653;28;20113;-64
2023/07/21 00:38:09;;;;;;;57.30;39.90;;;27.10;99.90;;;;;;5110557;28;20031;-64
2023/07/21 00:40:39;;;;;;;63.50;43.45;;;27.00;99.90;;;;;;5106441;28;20028;-65
2023/07/21 00:43:09;;;;;;;54.75;37.53;;;27.10;99.90;;;;;;5109339;28;20072;-65
2023/07/21 00:45:37;;;;;;;49.83;34.25;;;27.10;99.90;;;;;;5112085;28;20495;-64
2023/07/21 00:48:08;;;;;;;51.50;33.65;;;27.10;99.90;;;;;;5106285;28;20108;-65
2023/07/21 00:50:43;;;;;;;56.55;34.95;;;27.10;99.90;;;;;;5105045;28;20015;-67
2023/07/21 00:53:12;;;;;;;48.95;32.88;;;27.10;99.90;;;;;;5104639;28;20089;-65
2023/07/21 00:55:41;;;;;;;47.38;31.00;;;27.20;99.90;;;;;;5106299;28;20462;-66
2023/07/21 00:58:09;;;;;;;53.75;35.22;;;27.10;99.90;;;;;;5106955;28;20024;-64
2023/07/21 01:00:37;;;;;;;58.45;39.38;;;27.20;99.90;;;;;;5104576;28;20043;-66
2023/07/21 01:03:05;;;;;;;68.05;45.13;;;27.20;99.90;;;;;;5105435;28;20045;-65
2023/07/21 01:05:35;;;;;;;67.90;42.25;;;27.30;99.90;;;;;;5107640;28;20012;-67
2023/07/21 01:08:05;;;;;;;54.97;35.90;;;27.40;99.90;;;;;;5105185;28;20341;-65
2023/07/21 01:10:35;;;;;;;52.05;32.25;;;27.30;99.90;;;;;;5100949;28;20048;-68
2023/07/21 01:13:02;;;;;;;66.47;44.20;;;;;;;;;;5106577;28;20030;-65
2023/07/21 01:15:29;;;;;;;90.68;56.55;;;;;;;;;;5111056;28;20024;-64
2023/07/21 01:17:58;;;;;;;57.53;36.70;;;;;;;;;;5110416;27;20028;-64
2023/07/21 01:20:27;;;;;;;49.80;31.48;;;;;;;;;;5098838;28;20024;-63
2023/07/21 01:23:01;;;;;;;46.13;30.25;;;;;;;;;;5103395;28;20411;-64
2023/07/21 01:25:28;;;;;;;47.15;31.55;;;;;;;;;;5099655;28;20400;-64
2023/07/21 01:27:55;;;;;;;78.57;48.83;;;;;;;;;;5105041;28;20024;-64
2023/07/21 01:30:22;;;;;;;86.03;50.50;;;;;;;;;;5110261;28;20483;-63
2023/07/21 01:32:50;;;;;;;139.85;91.85;;;;;;;;;;5110315;28;20024;-64
2023/07/21 01:35:17;;;;;;;90.78;61.20;;;;;;;;;;5105431;28;20497;-64
2023/07/21 01:37:45;;;;;;;63.38;38.72;;;;;;;;;;5105200;28;20028;-63
2023/07/21 01:40:13;;;;;;;89.45;57.35;;;;;;;;;;5105620;28;20462;-62
2023/07/21 01:42:41;;;;;;;64.10;33.92;;;;;;;;;;5103837;28;20111;-64
2023/07/21 01:45:08;;;;;;;40.20;24.95;;;;;;;;;;5106466;28;20047;-64
2023/07/21 01:47:35;;;;;;;36.10;24.17;;;;;;;;;;5103902;28;20016;-64
2023/07/21 01:50:06;;;;;;;38.38;23.88;;;;;;;;;;5105089;28;20016;-64
2023/07/21 01:52:33;;;;;;;53.17;28.92;;;;;;;;;;5105503;28;20055;-64
2023/07/21 01:55:06;;;;;;;57.40;32.88;;;;;;;;;;5110320;28;20035;-64
2023/07/21 01:57:36;;;;;;;62.10;31.10;;;;;;;;;;5106147;28;20020;-64
2023/07/21 02:00:12;;;;;;;60.00;32.33;;;;;;;;;;5103879;28;20027;-64
2023/07/21 02:02:40;;;;;;;58.47;27.63;;;;;;;;;;5103156;28;20059;-64
2023/07/21 02:05:07;;;;;;;47.30;27.75;;;;;;;;;;5104475;28;20016;-64
2023/07/21 02:07:35;;;;;;;42.70;26.48;;;;;;;;;;5105368;28;20019;-64
2023/07/21 02:10:04;;;;;;;41.72;24.10;;;;;;;;;;5103306;28;20458;-64
2023/07/21 02:12:30;;;;;;;46.35;25.02;;;;;;;;;;5103695;28;20028;-64
2023/07/21 02:14:57;;;;;;;37.22;21.90;;;;;;;;;;5105339;28;20065;-63
2023/07/21 02:17:24;;;;;;;45.22;23.75;;;;;;;;;;5103521;28;20466;-63
2023/07/21 02:19:50;;;;;;;69.10;33.65;;;;;;;;;;5103376;28;20028;-63
2023/07/21 02:22:17;;;;;;;58.65;32.47;;;;;;;;;;5104869;28;20019;-63
2023/07/21 02:24:43;;;;;;;83.72;53.58;;;;;;;;;;5103478;28;20028;-64
2023/07/21 02:27:10;;;;;;;63.55;34.40;;;;;;;;;;5103374;28;20062;-64
2023/07/21 02:29:36;;;;;;;48.75;27.85;;;;;;;;;;5104902;28;20419;-63
2023/07/21 02:32:03;;;;;;;49.60;27.98;;;;;;;;;;5103321;28;20020;-64
2023/07/21 02:34:30;;;;;;;53.95;28.00;;;;;;;;;;5103381;27;20028;-64
2023/07/21 02:36:56;;;;;;;50.60;27.90;;;;;;;;;;5104772;28;20085;-64
2023/07/21 02:39:23;;;;;;;42.22;25.45;;;;;;;;;;5103039;28;20470;-64
2023/07/21 02:41:50;;;;;;;34.42;23.23;;;;;;;;;;5103394;27;20067;-64
2023/07/21 02:44:17;;;;;;;48.05;26.40;;;;;;;;;;5104817;28;20020;-64
2023/07/21 02:46:43;;;;;;;35.05;23.90;;;;;;;;;;5102987;28;20024;-64
2023/07/21 02:49:10;;;;;;;41.55;25.98;;;;;;;;;;5103452;28;20020;-64
2023/07/21 02:51:37;;;;;;;70.68;36.67;;;;;;;;;;5101855;28;20516;-64
2023/07/21 02:54:03;;;;;;;67.28;36.58;;;;;;;;;;5106178;28;20470;-65
2023/07/21 02:56:30;;;;;;;57.38;30.73;;;;;;;;;;5105959;28;20081;-63
2023/07/21 02:58:56;;;;;;;46.88;25.48;;;;;;;;;;5104997;28;20028;-64
2023/07/21 03:01:23;;;;;;;39.72;26.83;;;;;;;;;;5103384;28;20381;-62
2023/07/21 03:03:54;;;;;;;37.50;26.65;;;;;;;;;;5105767;28;20024;-62
2023/07/21 03:06:21;;;;;;;44.10;26.98;;;;;;;;;;5099896;28;20493;-65
2023/07/21 03:08:47;;;;;;;34.55;26.00;;;;;;;;;;5099856;28;20100;-65
2023/07/21 03:11:17;;;;;;;40.80;28.52;;;;;;;;;;5102220;28;20032;-66
2023/07/21 03:13:46;;;;;;;38.88;27.80;;;;;;;;;;5103079;28;20134;-66
2023/07/21 03:16:13;;;;;;;49.97;28.35;;;;;;;;;;5102442;28;20027;-65
2023/07/21 03:18:40;;;;;;;37.70;25.95;;;;;;;;;;5105395;28;20115;-65
2023/07/21 03:21:06;;;;;;;46.05;28.27;;;;;;;;;;5103125;28;20482;-65
2023/07/21 03:23:33;;;;;;;43.50;27.83;;;;;;;;;;5103854;28;20024;-66
2023/07/21 03:26:00;;;;;;;37.03;24.95;;;;;;;;;;5102622;28;20376;-66
2023/07/21 03:28:27;;;;;;;41.22;26.17;;;;;;;;;;5102610;28;20381;-68
2023/07/21 03:30:57;;;;;;;42.22;26.13;;;;;;;;;;5102941;28;20470;-70
2023/07/21 03:33:24;;;;;;;44.90;29.27;;;;;;;;;;5102527;28;20032;-66
2023/07/21 03:36:02;;;;;;;43.28;26.13;;;;;;;;;;5103226;28;20027;-66
2023/07/21 03:38:29;;;;;;;41.88;26.30;;;;;;;;;;5104007;28;20481;-67
2023/07/21 03:41:16;;;;;;;45.47;26.13;;;;;;;;;;5102488;28;20051;-68
2023/07/21 03:43:43;;;;;;;39.60;25.65;;;;;;;;;;5109095;28;20020;-69
2023/07/21 03:46:10;;;;;;;44.97;25.75;;;;;;;;;;5106512;28;20480;-71
2023/07/21 03:48:36;;;;;;;38.13;24.42;;;;;;;;;;5097237;28;20047;-67
2023/07/21 03:51:04;;;;;;;38.55;25.42;;;;;;;;;;5096944;28;20024;-65
2023/07/21 03:53:31;;;;;;;39.17;25.88;;;;;;;;;;5103787;28;20034;-67
2023/07/21 03:55:58;;;;;;;46.20;26.63;;;;;;;;;;5100768;28;20019;-68
2023/07/21 03:58:26;;;;;;;40.85;25.55;;;;;;;;;;5108159;28;20370;-66
2023/07/21 04:00:53;;;;;;;45.00;27.92;;;;;;;;;;5107466;28;20063;-67
2023/07/21 04:03:19;;;;;;;33.60;23.75;;;;;;;;;;5107757;28;20024;-66
2023/07/21 04:05:46;;;;;;;49.72;27.85;;;;;;;;;;5111828;27;20030;-66
2023/07/21 04:08:13;;;;;;;42.40;27.35;;;;;;;;;;5110933;28;20020;-67
2023/07/21 04:10:41;;;;;;;45.72;27.50;;;;;;;;;;5109077;28;20134;-67
2023/07/21 04:13:09;;;;;;;57.28;32.40;;;;;;;;;;5109707;28;20051;-67
2023/07/21 04:15:35;;;;;;;51.45;34.53;;;;;;;;;;5113655;28;20028;-65
2023/07/21 04:18:02;;;;;;;48.67;31.85;;;;;;;;;;5113384;28;20492;-64
2023/07/21 04:20:29;;;;;;;43.28;31.35;;;;;;;;;;5113234;28;20039;-64
2023/07/21 04:22:56;;;;;;;53.60;33.97;;;;;;;;;;5113762;28;20015;-64
2023/07/21 04:25:22;;;;;;;47.83;32.47;;;;;;;;;;5113755;27;20027;-65
2023/07/21 04:27:50;;;;;;;55.10;32.92;;;;;;;;;;5113234;28;20024;-65
2023/07/21 04:30:17;;;;;;;47.92;30.60;;;;;;;;;;5099719;28;20023;-64
2023/07/21 04:32:44;;;;;;;45.08;30.25;;;;;;;;;;5108770;28;20035;-65
2023/07/21 04:35:11;;;;;;;40.65;29.77;;;;;;;;;;5110654;27;20482;-65
2023/07/21 04:37:38;;;;;;;67.57;37.33;;;;;;;;;;5110893;28;20102;-65
2023/07/21 04:40:06;;;;;;;51.47;36.08;;;;;;;;;;5110548;28;20024;-65
2023/07/21 04:42:33;;;;;;;115.07;87.57;;;;;;;;;;5110053;28;20032;-66
2023/07/21 04:45:00;;;;;;;54.80;38.65;;;;;;;;;;5110776;28;20011;-66
2023/07/21 04:47:26;;;;;;;61.78;45.85;;;;;;;;;;5110385;28;20027;-67
2023/07/21 04:49:53;;;;;;;46.80;30.73;;;;;;;;;;5109176;28;20019;-66
2023/07/21 04:52:21;;;;;;;36.20;27.17;;;;;;;;;;5109602;28;20038;-65
2023/07/21 04:54:48;;;;;;;39.10;27.77;;;;;;;;;;5109503;28;20111;-66
2023/07/21 04:57:14;;;;;;;31.45;25.42;;;;;;;;;;5103469;28;20072;-66
2023/07/21 04:59:43;;;;;;;40.92;26.38;;;;;;;;;;5105155;28;20035;-67
2023/07/21 05:02:10;;;;;;;36.40;28.75;;;;;;;;;;5100715;28;20469;-67
2023/07/21 05:04:36;;;;;;;51.08;30.85;;;;;;;;;;5100594;28;20103;-67
2023/07/21 05:07:03;;;;;;;48.85;31.50;;;;;;;;;;5100013;28;20429;-67
2023/07/21 05:09:30;;;;;;;37.28;25.95;;;;;;;;;;5105758;28;20635;-66
2023/07/21 05:11:56;;;;;;;42.38;26.98;;;;;;;;;;5108627;28;20310;-66
2023/07/21 05:14:23;;;;;;;32.90;23.25;;;;;;;;;;5108888;28;20359;-67
2023/07/21 05:16:49;;;;;;;30.85;23.10;;;;;;;;;;5108676;28;20024;-66
2023/07/21 05:19:16;;;;;;;29.48;21.42;;;;;;;;;;5108411;28;20534;-66
2023/07/21 05:21:44;;;;;;;32.05;22.05;;;;;;;;;;5108660;27;20032;-66
2023/07/21 05:24:10;;;;;;;38.45;24.15;;;;;;;;;;5108308;28;20024;-65
2023/07/21 05:26:37;;;;;;;30.83;22.23;;;;;;;;;;5108230;28;20020;-66
2023/07/21 05:29:04;;;;;;;29.33;22.92;;;;;;;;;;5108768;28;20381;-66
2023/07/21 05:31:31;;;;;;;28.40;22.73;;;;;;;;;;5108328;28;20090;-66
2023/07/21 05:33:58;;;;;;;34.53;23.25;;;;;;;;;;5108007;28;20054;-65
2023/07/21 05:36:28;;;;;;;36.67;23.92;;;;;;;;;;5104388;28;20016;-67
2023/07/21 05:38:54;;;;;;;30.95;22.80;;;;;;;;;;5099658;28;20012;-67
2023/07/21 05:41:22;;;;;;;33.42;23.15;;;;;;;;;;5093481;28;20081;-67
2023/07/21 05:43:48;;;;;;;32.67;23.38;;;;;;;;;;5105216;28;20303;-67
2023/07/21 05:46:15;;;;;;;38.72;25.10;;;;;;;;;;5093654;28;20104;-68
2023/07/21 05:48:42;;;;;;;29.40;22.00;;;;;;;;;;5093569;28;20039;-68
2023/07/21 05:51:18;;;;;;;26.65;21.50;;;;;;;;;;5093920;28;20109;-68
2023/07/21 05:53:44;;;;;;;29.70;21.52;;;;;;;;;;5099348;28;20039;-68
2023/07/21 05:56:11;;;;;;;32.60;19.70;;;;;;;;;;5107587;27;20034;-68
2023/07/21 05:58:38;;;;;;;24.60;18.10;;;;;;;;;;5103134;28;20040;-68
2023/07/21 06:01:05;;;;;;;28.25;18.25;;;;;;;;;;5099414;28;20051;-68
2023/07/21 06:03:31;;;;;;;27.60;17.75;;;;;;;;;;5102889;28;20030;-68
2023/07/21 06:05:58;;;;;;;21.23;16.48;;;;;;;;;;5107226;28;20032;-66
2023/07/21 06:08:25;;;;;;;25.88;15.85;;;;;;;;;;5103684;28;20034;-66
2023/07/21 06:10:56;;;;;;;24.67;17.35;;;;;;;;;;5103451;28;20283;-66
2023/07/21 06:13:23;;;;;;;20.63;15.77;;;;;;;;;;5098621;28;20051;-65
2023/07/21 06:15:50;;;;;;;26.80;18.38;;;;;;;;;;5100631;28;20113;-65
2023/07/21 06:18:16;;;;;;;20.63;15.98;;;;;;;;;;5098160;28;20023;-65
2023/07/21 06:20:45;;;;;;;20.30;14.05;;;;;;;;;;5101867;28;20043;-67
2023/07/21 06:23:12;;;;;;;24.75;14.38;;;;;;;;;;5102685;28;20054;-64
2023/07/21 06:25:39;;;;;;;19.35;13.32;;;;;;;;;;5101434;28;20020;-68
2023/07/21 06:28:06;;;;;;;18.02;13.50;;;;;;;;;;5102276;28;20020;-64
2023/07/21 06:30:33;;;;;;;21.40;14.50;;;;;;;;;;5103607;28;20031;-64
2023/07/21 06:33:00;;;;;;;20.58;13.60;;;;;;;;;;5101816;28;20024;-65
2023/07/21 06:35:26;;;;;;;23.52;14.90;;;;;;;;;;5103439;28;20031;-65
2023/07/21 06:37:53;;;;;;;23.38;16.95;;;;;;;;;;5101713;28;20024;-67
2023/07/21 06:40:20;;;;;;;27.73;17.23;;;;;;;;;;5101869;28;20024;-66
2023/07/21 06:42:47;;;;;;;26.58;14.73;;;;;;;;;;5103276;27;20027;-65
2023/07/21 06:45:14;;;;;;;37.50;20.27;;;;;;;;;;5104131;28;20020;-66
2023/07/21 06:47:40;;;;;;;27.90;18.08;;;;;;;;;;5106336;28;20363;-68
2023/07/21 06:50:07;;;;;;;23.27;14.68;;;;;;;;;;5105756;28;20023;-66
2023/07/21 06:52:34;;;;;;;26.85;13.68;;;;;;;;;;5104158;28;20111;-73
2023/07/21 06:55:01;;;;;;;26.92;15.63;;;;;;;;;;5102418;28;20511;-65
2023/07/21 06:57:28;;;;;;;28.70;21.63;;;;;;;;;;5103184;28;20054;-70
2023/07/21 06:59:55;;;;;;;74.65;43.90;;;;;;;;;;5103824;28;20030;-71
2023/07/21 07:02:21;;;;;;;65.80;40.88;;;;;;;;;;5101678;28;20028;-68
2023/07/21 07:04:48;;;;;;;52.63;35.45;;;;;;;;;;5102839;28;20035;-67
2023/07/21 07:07:15;;;;;;;26.40;18.90;;;;;;;;;;5100380;28;20513;-67
2023/07/21 07:09:42;;;;;;;71.80;44.95;;;;;;;;;;5103415;28;20484;-69
2023/07/21 07:12:09;;;;;;;125.13;101.90;;;;;;;;;;5102324;28;20066;-67
2023/07/21 07:14:36;;;;;;;95.38;73.43;;;;;;;;;;5100577;28;20031;-67
2023/07/21 07:17:03;;;;;;;139.85;93.75;;;;;;;;;;5102502;28;20051;-67
2023/07/21 07:19:29;;;;;;;76.25;54.63;;;;;;;;;;5102332;28;20497;-66
2023/07/21 07:21:56;;;;;;;91.00;63.55;;;;;;;;;;5101475;28;20032;-68
2023/07/21 07:24:23;;;;;;;64.97;43.90;;;;;;;;;;5103039;28;20027;-68
2023/07/21 07:26:50;;;;;;;32.35;21.65;;;;;;;;;;5101944;28;20485;-68
2023/07/21 07:29:16;;;;;;;24.42;18.73;;;;;;;;;;5102940;28;20023;-66
2023/07/21 07:31:43;;;;;;;35.97;23.40;;;;;;;;;;5101030;28;20077;-70
2023/07/21 07:34:10;;;;;;;42.55;31.65;;;;;;;;;;5101489;28;20023;-66
2023/07/21 07:36:36;;;;;;;37.85;24.02;;;;;;;;;;5103279;28;20027;-68
2023/07/21 07:39:03;;;;;;;35.58;21.30;;;;;;;;;;5104327;28;20103;-68
2023/07/21 07:41:30;;;;;;;30.70;16.60;;;;;;;;;;5105462;28;20019;-69
2023/07/21 07:43:56;;;;;;;84.00;61.97;;;;;;;;;;5106926;28;20015;-66
2023/07/21 07:46:23;;;;;;;104.28;77.78;;;;;;;;;;5104734;28;20024;-71
2023/07/21 07:48:50;;;;;;;58.22;40.80;;;;;;;;;;5103839;28;20023;-66
2023/07/21 07:51:17;;;;;;;36.88;24.73;;;;;;;;;;5106407;28;20038;-68
2023/07/21 07:53:44;;;;;;;30.85;17.95;;;;;;;;;;5105646;28;20028;-68
2023/07/21 07:56:15;;;;;;;19.58;14.00;;;;;;;;;;5105979;28;20023;-67
2023/07/21 07:58:42;;;;;;;22.92;14.65;;;;;;;;;;5105435;28;20038;-67
2023/07/21 08:01:13;;;;;;;26.67;15.25;;;;;;;;;;5106352;28;20020;-69
2023/07/21 08:03:43;;;;;;;28.90;15.70;;;;;;;;;;5105180;28;20462;-72
2023/07/21 08:06:10;;;;;;;20.55;14.65;;;;;;;;;;5105956;28;20023;-66
2023/07/21 08:08:37;;;;;;;20.15;14.45;;;;;;;;;;5097649;28;20054;-67
2023/07/21 08:11:04;;;;;;;20.23;15.07;;;;;;;;;;5100878;28;20583;-65
2023/07/21 08:13:30;;;;;;;26.38;15.35;;;;;;;;;;5106473;28;20063;-66
2023/07/21 08:15:57;;;;;;;24.23;14.45;;;;;;;;;;5105749;28;20027;-66
2023/07/21 08:18:24;;;;;;;19.70;11.98;;;;;;;;;;5107091;28;20030;-66
2023/07/21 08:20:51;;;;;;;20.52;13.20;;;;;;;;;;5104615;28;20758;-67
2023/07/21 08:23:18;;;;;;;19.75;12.38;;;;;;;;;;5105113;28;20107;-66
2023/07/21 08:25:44;;;;;;;34.35;22.88;;;;;;;;;;5106278;28;20023;-66
2023/07/21 08:28:11;;;;;;;24.52;14.18;;;;;;;;;;5104861;28;20031;-65
2023/07/21 08:30:38;;;;;;;55.20;38.53;;;;;;;;;;5105473;28;20061;-66
2023/07/21 08:33:04;;;;;;;123.45;68.32;;;;;;;;;;5106728;28;20018;-70
2023/07/21 08:35:32;;;;;;;64.88;39.13;;;;;;;;;;5105244;28;20065;-71
2023/07/21 08:37:59;;;;;;;73.72;49.45;;;;;;;;;;5105099;27;20435;-68
2023/07/21 08:40:26;;;;;;;42.55;27.13;;;;;;;;;;5106555;28;20098;-72
2023/07/21 08:42:52;;;;;;;35.08;25.52;;;;;;;;;;5105128;28;20085;-69
2023/07/21 08:45:20;;;;;;;54.17;28.33;;;;;;;;;;5104992;28;20474;-68
2023/07/21 08:47:50;;;;;;;37.55;22.20;;;;;;;;;;5105691;28;20024;-67
2023/07/21 08:50:19;;;;;;;41.65;30.25;;;;;;;;;;5105777;28;20032;-71
2023/07/21 08:52:46;;;;;;;33.38;21.05;;;;;;;;;;5110584;28;20019;-70
2023/07/21 08:55:13;;;;;;;46.47;28.33;;;;;;;;;;5106510;28;20401;-68
2023/07/21 08:57:39;;;;;;;36.47;22.02;;;;;;;;;;5106181;28;20028;-68
2023/07/21 09:00:07;;;;;;;24.73;15.70;;;;;;;;;;5104513;28;20477;-68
2023/07/21 09:02:46;;;;;;;29.02;15.85;;;;;;;;;;5105425;28;20102;-69
2023/07/21 09:05:22;;;;;;;23.20;11.80;;;;;;;;;;5104762;28;20020;-68
2023/07/21 09:07:48;;;;;;;17.83;10.73;;;;;;;;;;5104278;28;20092;-68
2023/07/21 09:10:27;;;;;;;21.67;11.02;;;;;;;;;;5105274;28;20039;-69
2023/07/21 09:12:54;;;;;;;18.27;10.48;;;;;;;;;;5106504;28;20031;-67
2023/07/21 09:15:20;;;;;;;21.50;13.02;;;;;;;;;;5106219;28;20024;-68
2023/07/21 09:17:47;;;;;;;27.08;15.10;;;;;;;;;;5107198;28;20024;-71
2023/07/21 09:20:14;;;;;;;24.90;14.23;;;;;;;;;;5107200;28;20089;-69
2023/07/21 09:22:41;;;;;;;19.90;13.27;;;;;;;;;;5106543;28;20028;-69
2023/07/21 09:25:08;;;;;;;29.20;13.90;;;;;;;;;;5108939;28;20120;-68
2023/07/21 09:27:38;;;;;;;17.45;10.93;;;;;;;;;;5101675;28;20024;-66
2023/07/21 09:30:05;;;;;;;13.48;9.80;;;;;;;;;;5102856;28;20013;-69
2023/07/21 09:32:39;;;;;;;19.83;10.18;;;;;;;;;;5096538;28;20031;-66
2023/07/21 09:35:06;;;;;;;19.42;10.90;;;;;;;;;;5104818;28;20020;-68
2023/07/21 09:37:35;;;;;;;20.58;9.98;;;;;;;;;;5103553;28;20024;-69
2023/07/21 09:40:05;;;;;;;25.45;14.25;;;;;;;;;;5103412;28;20023;-68
2023/07/21 09:42:32;;;;;;;33.90;15.60;;;;;;;;;;5101907;28;20023;-69
2023/07/21 09:44:58;;;;;;;27.83;16.73;;;;;;;;;;5102899;28;20020;-70
2023/07/21 09:47:26;;;;;;;37.38;16.33;;;;;;;;;;5102392;28;20490;-68
2023/07/21 09:49:53;;;;;;;40.15;23.35;;;;;;;;;;5105516;28;20469;-68
2023/07/21 09:52:20;;;;;;;29.80;13.30;;;;;;;;;;5109682;28;20024;-68
2023/07/21 09:54:51;;;;;;;17.92;10.85;;;;;;;;;;5108600;28;20031;-70
2023/07/21 09:57:23;;;;;;;17.80;10.63;;;;;;;;;;5097354;28;20016;-66
2023/07/21 09:59:50;;;;;;;95.50;60.83;;;;;;;;;;5098500;28;20027;-71
2023/07/21 10:02:17;;;;;;;356.98;227.68;;;;;;;;;;5107597;28;20060;-67
2023/07/21 10:04:44;;;;;;;992.33;618.60;;;;;;;;;;5103322;28;20028;-67
2023/07/21 10:07:12;;;;;;;259.42;144.40;;;;;;;;;;5097307;28;20027;-71
2023/07/21 10:09:39;;;;;;;188.65;134.05;;;;;;;;;;5097715;28;20013;-71
2023/07/21 10:12:11;;;;;;;253.98;162.63;;;;;;;;;;5102622;28;20051;-71
2023/07/21 10:14:39;;;;;;;366.02;235.77;;;;;;;;;;5100806;28;20083;-69
2023/07/21 10:17:06;;;;;;;109.75;66.60;;;;;;;;;;5096878;28;20024;-68
2023/07/21 10:19:43;;;;;;;60.28;35.08;;;;;;;;;;5097302;28;20102;-63
2023/07/21 10:22:12;;;;;;;53.90;33.17;;;;;;;;;;5099119;28;20466;-69
2023/07/21 10:24:53;;;;;;;263.67;194.70;;;;;;;;;;5109819;28;20064;-70
2023/07/21 10:27:21;;;;;;;83.35;54.75;;;;;;;;;;5105261;28;20019;-70
2023/07/21 10:30:07;;;;;;;98.20;62.03;;;;;;;;;;5102335;28;20478;-69
2023/07/21 10:32:43;;;;;;;87.60;55.15;;;;;;;;;;5101818;28;20066;-69
2023/07/21 10:35:30;;;;;;;77.45;48.35;;;;;;;;;;5102067;28;20020;-69
2023/07/21 10:38:17;;;;;;;67.65;37.63;;;;;;;;;;5107243;28;20020;-68
2023/07/21 10:40:45;;;;;;;64.30;38.60;;;;;;;;;;5102480;28;20067;-71
2023/07/21 10:43:12;;;;;;;65.72;40.97;;;;;;;;;;5100130;28;20397;-68
2023/07/21 10:45:39;;;;;;;56.60;31.35;;;;;;;;;;5104049;28;20051;-68
2023/07/21 10:48:11;;;;;;;50.78;30.08;;;;;;;;;;5098511;28;20069;-75
2023/07/21 10:50:47;;;;;;;52.88;30.58;;;;;;;;;;5101728;28;20077;-70
2023/07/21 10:53:15;;;;;;;59.63;33.53;;;;;;;;;;5111229;28;20022;-70
2023/07/21 10:55:42;;;;;;;75.03;47.33;;;;;;;;;;5098159;28;20026;-65
2023/07/21 10:58:09;;;;;;;56.70;28.67;;;;;;;;;;5094199;28;20035;-69
2023/07/21 11:00:47;;;;;;;59.75;32.58;;;;;;;;;;5103669;28;20020;-68
2023/07/21 11:03:14;;;;;;;50.35;29.08;;;;;;;;;;5106399;28;20457;-69
2023/07/21 11:05:41;;;;;;;57.97;33.35;;;;;;;;;;5106198;28;20020;-69
2023/07/21 11:08:26;;;;;;;59.67;36.50;;;;;;;;;;5103578;28;20058;-68
2023/07/21 11:10:54;;;;;;;80.93;28.55;;;;;;;;;;5103928;28;20036;-74
2023/07/21 11:13:22;;;;;;;156.80;106.68;;;;;;;;;;5101462;28;20016;-71
2023/07/21 11:15:52;;;;;;;105.28;65.57;;;;;;;;;;5100550;28;20087;-71
2023/07/21 11:18:19;;;;;;;68.53;40.00;;;;;;;;;;5102406;28;20031;-71
2023/07/21 11:20:49;;;;;;;68.25;39.03;;;;;;;;;;5103340;28;20022;-70
2023/07/21 11:23:15;;;;;;;41.60;22.15;;;;;;;;;;5101885;28;20012;-71
2023/07/21 11:25:42;;;;;;;48.08;24.13;;;;;;;;;;5104734;28;20513;-69
2023/07/21 11:28:11;;;;;;;54.28;28.92;;;;;;;;;;5103886;28;20099;-70
2023/07/21 11:30:38;;;;;;;65.28;29.02;;;;;;;;;;5105242;28;20050;-69
2023/07/21 11:33:13;;;;;;;51.22;33.17;;;;;;;;;;5103401;28;20012;-68
2023/07/21 11:35:46;;;;;;;51.53;29.45;;;;;;;;;;5101261;28;20032;-70
2023/07/21 11:38:13;;;;;;;39.65;24.23;;;;;;;;;;5102986;28;20016;-69
2023/07/21 11:40:40;;;;;;;37.95;24.55;;;;;;;;;;5103201;28;20019;-71
2023/07/21 11:43:09;;;;;;;51.17;32.30;;;;;;;;;;5102375;28;20041;-71
2023/07/21 11:45:37;;;;;;;32.85;19.30;;;;;;;;;;5103065;28;20012;-68
2023/07/21 11:48:13;;;;;;;30.40;18.50;;;;;;;;;;5102944;28;20016;-71
2023/07/21 11:50:56;;;;;;;34.75;18.33;;;;;;;;;;5106787;28;20198;-68
2023/07/21 11:53:25;;;;;;;38.58;20.75;;;;;;;;;;5105282;28;20043;-69
2023/07/21 11:55:52;;;;;;;39.03;21.77;;;;;;;;;;5104648;28;20019;-70
2023/07/21 11:58:18;;;;;;;36.55;20.40;;;;;;;;;;5100854;28;20378;-68
2023/07/21 12:00:45;;;;;;;36.58;17.23;;;;;;;;;;5100251;28;20555;-67
2023/07/21 12:03:12;;;;;;;34.08;17.17;;;;;;;;;;5099601;28;20392;-69
2023/07/21 12:05:39;;;;;;;27.98;18.40;;;;;;;;;;5100440;28;20557;-70
2023/07/21 12:08:06;;;;;;;35.50;21.98;;;;;;;;;;5103901;28;20073;-71
2023/07/21 12:10:33;;;;;;;31.05;20.80;;;;;;;;;;5104055;28;20044;-70
2023/07/21 12:13:03;;;;;;;37.42;24.30;;;;;;;;;;5099975;28;20381;-71
2023/07/21 12:15:33;;;;;;;45.33;25.55;;;;;;;;;;5100896;28;20066;-70
2023/07/21 12:18:00;;;;;;;38.40;24.95;;;;;;;;;;5099915;28;20080;-71
2023/07/21 12:20:27;;;;;;;38.33;23.23;;;;;;;;;;5102666;28;20024;-70
2023/07/21 12:22:53;;;;;;;36.80;22.17;;;;;;;;;;5104254;28;20082;-70
2023/07/21 12:25:20;;;;;;;36.60;21.17;;;;;;;;;;5101284;28;20103;-71
2023/07/21 12:27:49;;;;;;;35.72;20.45;;;;;;;;;;5104784;28;20026;-71
2023/07/21 12:30:16;;;;;;;32.10;19.45;;;;;;;;;;5108407;28;20061;-69
2023/07/21 12:32:43;;;;;;;33.60;18.88;;;;;;;;;;5105534;28;20069;-68
2023/07/21 12:35:10;;;;;;;32.92;19.30;;;;;;;;;;5103603;28;20051;-68
2023/07/21 12:37:39;;;;;;;32.95;22.08;;;;;;;;;;5102860;28;20026;-67
2023/07/21 12:40:12;;;;;;;37.30;22.17;;;;;;;;;;5099451;28;20027;-68
2023/07/21 12:42:40;;;;;;;42.10;24.33;;;;;;;;;;5098847;28;20031;-67
2023/07/21 12:45:07;;;;;;;38.70;24.27;;;;;;;;;;5099314;28;20020;-66
2023/07/21 12:47:34;;;;;;;34.40;22.80;;;;;;;;;;5099229;28;20091;-64
2023/07/21 12:50:00;;;;;;;36.58;24.02;;;;;;;;;;5099165;28;20060;-67
2023/07/21 12:52:27;;;;;;;36.22;24.20;;;;;;;;;;5098864;28;20028;-67
2023/07/21 12:54:53;;;;;;;37.00;22.25;;;;;;;;;;5101652;28;20050;-65
2023/07/21 12:57:20;;;;;;;27.75;18.10;;;;;;;;;;5101332;28;20020;-67
2023/07/21 12:59:47;;;;;;;29.55;16.77;;;;;;;;;;5110683;28;20232;-67
2023/07/21 13:02:13;;;;;;;29.70;16.75;;;;;;;;;;5104139;28;20020;-65
2023/07/21 13:04:40;;;;;;;30.98;16.33;;;;;;;;;;5105657;28;20184;-66
2023/07/21 13:07:09;;;;;;;30.13;16.02;;;;;;;;;;5102775;28;20038;-67
2023/07/21 13:09:36;;;;;;;26.98;16.35;;;;;;;;;;5103554;28;20028;-67
2023/07/21 13:12:03;;;;;;;31.05;16.58;;;;;;;;;;5109630;28;20040;-66
2023/07/21 13:14:31;;;;;;;31.75;17.02;;;;;;;;;;5112486;27;20081;-67
2023/07/21 13:16:58;;;;;;;32.33;18.38;;;;;;;;;;5103634;28;20020;-70
2023/07/21 13:19:25;;;;;;;27.92;16.95;;;;;;;;;;5103710;28;20031;-66
2023/07/21 13:21:51;;;;;;;31.23;16.98;;;;;;;;;;5101768;28;20400;-66
2023/07/21 13:24:18;;;;;;;29.98;17.70;;;;;;;;;;5103288;28;20046;-66
2023/07/21 13:26:45;;;;;;;30.63;17.67;;;;;;;;;;5106283;28;20555;-67
2023/07/21 13:29:12;;;;;;;31.85;17.42;;;;;;;;;;5105104;28;20070;-68
2023/07/21 13:31:38;;;;;;;32.13;19.00;;;;;;;;;;5105124;28;20069;-67
2023/07/21 13:34:05;;;;;;;30.70;18.90;;;;;;;;;;5101977;28;20016;-66
2023/07/21 13:36:32;;;;;;;29.10;19.67;;;;;;;;;;5098886;28;20032;-67
2023/07/21 13:38:58;;;;;;;37.85;19.33;;;;;;;;;;5098491;28;20020;-67
2023/07/21 13:41:25;;;;;;;39.80;19.88;;;;;;;;;;5108091;28;20363;-67
2023/07/21 13:43:53;;;;;;;33.50;21.30;;;;;;;;;;5106576;28;20026;-67
2023/07/21 13:46:22;;;;;;;32.60;20.92;;;;;;;;;;5099456;28;20020;-66
2023/07/21 13:48:49;;;;;;;34.08;20.17;;;;;;;;;;5111632;28;20035;-67
2023/07/21 13:51:15;;;;;;;34.30;20.70;;;;;;;;;;5101333;28;20474;-68
2023/07/21 13:53:42;;;;;;;40.72;20.45;;;;;;;;;;5104896;28;20020;-67
2023/07/21 13:56:10;;;;;;;32.58;20.83;;;;;;;;;;5108484;28;20058;-67
2023/07/21 13:58:37;;;;;;;32.88;21.00;;;;;;;;;;5098397;27;20036;-68
2023/07/21 14:01:04;;;;;;;33.78;21.25;;;;;;;;;;5110455;28;20103;-67
2023/07/21 14:03:31;;;;;;;35.17;21.60;;;;;;;;;;5103920;28;20008;-68
2023/07/21 14:05:57;;;;;;;33.58;21.48;;;;;;;;;;5103034;28;20080;-68
2023/07/21 14:08:24;;;;;;;42.67;22.58;;;;;;;;;;5111058;28;20020;-68
2023/07/21 14:10:51;;;;;;;30.48;21.02;;;;;;;;;;5098212;28;20046;-69